sensor_id;sensor_type;location;lat;lon;timestamp;pressure;altitude;pressure_sealevel;temperature;humidity
6032;BME280;3044;43.232;27.972;2023-02-03T00:02:26;45191.88;;;-143.84;81.71
6032;BME280;3044;43.232;27.972;2023-02-03T00:04:54;45180.47;;;-143.84;81.19
6032;BME280;3044;43.232;27.972;2023-02-03T00:07:21;45193.78;;;-143.84;80.71
6032;BME280;3044;43.232;27.972;2023-02-03T00:09:48;45193.78;;;-143.84;80.53
6032;BME280;3044;43.232;27.972;2023-02-03T00:12:15;45203.31;;;-143.84;80.26
6032;BME280;3044;43.232;27.972;2023-02-03T00:14:42;45195.69;;;-143.84;80.59
6032;BME280;3044;43.232;27.972;2023-02-03T00:17:09;45195.69;;;-143.84;80.67
6032;BME280;3044;43.232;27.972;2023-02-03T00:19:38;45184.25;;;-143.84;80.56
6032;BME280;3044;43.232;27.972;2023-02-03T00:22:05;45214.72;;;-143.84;80.31
6032;BME280;3044;43.232;27.972;2023-02-03T00:24:32;45220.44;;;-143.84;79.87
6032;BME280;3044;43.232;27.972;2023-02-03T00:26:59;45201.41;;;-143.84;79.93
6032;BME280;3044;43.232;27.972;2023-02-03T00:29:26;45170.94;;;-143.84;80.50
6032;BME280;3044;43.232;27.972;2023-02-03T00:31:53;45214.72;;;-143.84;80.75
6032;BME280;3044;43.232;27.972;2023-02-03T00:34:21;45193.78;;;-143.84;80.53
6032;BME280;3044;43.232;27.972;2023-02-03T00:36:50;45189.97;;;-143.84;80.47
6032;BME280;3044;43.232;27.972;2023-02-03T00:39:17;45207.13;;;-143.84;80.77
6032;BME280;3044;43.232;27.972;2023-02-03T00:41:44;45180.47;;;-143.84;81.03
6032;BME280;3044;43.232;27.972;2023-02-03T00:44:12;45193.78;;;-143.84;81.31
6032;BME280;3044;43.232;27.972;2023-02-03T00:46:39;45197.59;;;-143.84;81.64
6032;BME280;3044;43.232;27.972;2023-02-03T00:49:06;45161.41;;;-143.84;81.66
6032;BME280;3044;43.232;27.972;2023-02-03T00:51:34;45159.50;;;-143.84;82.00
6032;BME280;3044;43.232;27.972;2023-02-03T00:54:02;45174.75;;;-143.84;81.32
6032;BME280;3044;43.232;27.972;2023-02-03T00:56:30;45186.16;;;-143.84;81.10
6032;BME280;3044;43.232;27.972;2023-02-03T00:58:57;45184.25;;;-143.84;81.17
6032;BME280;3044;43.232;27.972;2023-02-03T01:01:24;45203.31;;;-143.84;80.61
6032;BME280;3044;43.232;27.972;2023-02-03T01:03:53;45209.03;;;-143.84;80.56
6032;BME280;3044;43.232;27.972;2023-02-03T01:06:21;45193.78;;;-143.84;80.66
6032;BME280;3044;43.232;27.972;2023-02-03T01:08:49;45163.31;;;-143.84;80.39
6032;BME280;3044;43.232;27.972;2023-02-03T01:11:20;45205.22;;;-143.84;80.20
6032;BME280;3044;43.232;27.972;2023-02-03T01:13:47;45205.22;;;-143.84;80.93
6032;BME280;3044;43.232;27.972;2023-02-03T01:16:17;45214.72;;;-143.84;80.72
6032;BME280;3044;43.232;27.972;2023-02-03T01:18:45;45210.94;;;-143.84;80.25
6032;BME280;3044;43.232;27.972;2023-02-03T01:21:14;45170.94;;;-143.84;81.26
6032;BME280;3044;43.232;27.972;2023-02-03T01:23:42;45174.75;;;-143.84;81.26
6032;BME280;3044;43.232;27.972;2023-02-03T01:26:11;45186.16;;;-143.84;81.26
6032;BME280;3044;43.232;27.972;2023-02-03T01:28:40;45199.50;;;-143.84;81.00
6032;BME280;3044;43.232;27.972;2023-02-03T01:31:09;45174.75;;;-143.84;81.49
6032;BME280;3044;43.232;27.972;2023-02-03T01:33:37;45159.50;;;-143.84;81.37
6032;BME280;3044;43.232;27.972;2023-02-03T01:36:06;45167.13;;;-143.84;82.13
6032;BME280;3044;43.232;27.972;2023-02-03T01:38:34;45186.16;;;-143.84;82.26
6032;BME280;3044;43.232;27.972;2023-02-03T01:41:01;45167.13;;;-143.84;82.60
6032;BME280;3044;43.232;27.972;2023-02-03T01:43:30;45167.13;;;-143.84;82.47
6032;BME280;3044;43.232;27.972;2023-02-03T01:46:01;45159.50;;;-143.84;82.04
6032;BME280;3044;43.232;27.972;2023-02-03T01:48:31;45189.97;;;-143.84;82.21
6032;BME280;3044;43.232;27.972;2023-02-03T01:51:01;45195.69;;;-143.84;81.60
6032;BME280;3044;43.232;27.972;2023-02-03T01:53:30;45170.94;;;-143.84;81.57
6032;BME280;3044;43.232;27.972;2023-02-03T01:56:00;45191.88;;;-143.84;81.93
6032;BME280;3044;43.232;27.972;2023-02-03T01:58:31;45170.94;;;-143.84;81.36
6032;BME280;3044;43.232;27.972;2023-02-03T02:01:01;45176.66;;;-143.84;81.63
6032;BME280;3044;43.232;27.972;2023-02-03T02:03:31;45214.72;;;-143.84;81.40
6032;BME280;3044;43.232;27.972;2023-02-03T02:06:03;45169.03;;;-143.84;81.35
6032;BME280;3044;43.232;27.972;2023-02-03T02:08:31;45203.31;;;-143.84;81.53
6032;BME280;3044;43.232;27.972;2023-02-03T02:10:58;45210.94;;;-143.84;81.49
6032;BME280;3044;43.232;27.972;2023-02-03T02:13:27;45195.69;;;-143.84;81.31
6032;BME280;3044;43.232;27.972;2023-02-03T02:16:02;45161.41;;;-143.84;80.71
6032;BME280;3044;43.232;27.972;2023-02-03T02:19:02;45197.59;;;-143.84;81.10
6032;BME280;3044;43.232;27.972;2023-02-03T02:21:51;45170.94;;;-143.84;81.30
6032;BME280;3044;43.232;27.972;2023-02-03T02:24:38;45184.25;;;-143.84;81.21
6032;BME280;3044;43.232;27.972;2023-02-03T02:27:18;45224.25;;;-143.84;80.73
6032;BME280;3044;43.232;27.972;2023-02-03T02:30:22;45189.97;;;-143.84;80.53
6032;BME280;3044;43.232;27.972;2023-02-03T02:33:09;45212.84;;;-143.84;80.81
6032;BME280;3044;43.232;27.972;2023-02-03T02:35:45;45203.31;;;-143.84;80.50
6032;BME280;3044;43.232;27.972;2023-02-03T02:38:24;45188.06;;;-143.84;80.77
6032;BME280;3044;43.232;27.972;2023-02-03T02:40:58;45174.75;;;-143.84;80.84
6032;BME280;3044;43.232;27.972;2023-02-03T02:43:32;45207.13;;;-143.84;80.53
6032;BME280;3044;43.232;27.972;2023-02-03T02:46:05;45172.84;;;-143.84;80.55
6032;BME280;3044;43.232;27.972;2023-02-03T02:48:43;45216.63;;;-143.84;80.03
6032;BME280;3044;43.232;27.972;2023-02-03T02:51:14;45218.53;;;-143.84;80.12
6032;BME280;3044;43.232;27.972;2023-02-03T02:53:45;45237.59;;;-143.84;80.33
6032;BME280;3044;43.232;27.972;2023-02-03T02:56:14;45146.19;;;-143.84;79.91
6032;BME280;3044;43.232;27.972;2023-02-03T02:58:45;45188.06;;;-143.84;79.69
6032;BME280;3044;43.232;27.972;2023-02-03T03:01:14;45220.44;;;-143.84;79.68
6032;BME280;3044;43.232;27.972;2023-02-03T03:03:44;45214.72;;;-143.84;79.62
6032;BME280;3044;43.232;27.972;2023-02-03T03:06:15;45210.94;;;-143.84;79.68
6032;BME280;3044;43.232;27.972;2023-02-03T03:08:47;45201.41;;;-143.84;79.27
6032;BME280;3044;43.232;27.972;2023-02-03T03:11:18;45209.03;;;-143.84;79.66
6032;BME280;3044;43.232;27.972;2023-02-03T03:13:49;45203.31;;;-143.84;79.16
6032;BME280;3044;43.232;27.972;2023-02-03T03:16:22;45186.16;;;-143.84;79.39
6032;BME280;3044;43.232;27.972;2023-02-03T03:18:53;45218.53;;;-143.84;79.37
6032;BME280;3044;43.232;27.972;2023-02-03T03:21:24;45195.69;;;-143.84;79.76
6032;BME280;3044;43.232;27.972;2023-02-03T03:23:56;45197.59;;;-143.84;79.70
6032;BME280;3044;43.232;27.972;2023-02-03T03:26:29;45222.34;;;-143.84;79.59
6032;BME280;3044;43.232;27.972;2023-02-03T03:29:05;45207.13;;;-143.84;79.55
6032;BME280;3044;43.232;27.972;2023-02-03T03:31:33;45218.53;;;-143.84;79.61
6032;BME280;3044;43.232;27.972;2023-02-03T03:34:02;45197.59;;;-143.84;80.28
6032;BME280;3044;43.232;27.972;2023-02-03T03:36:33;45193.78;;;-143.84;81.33
6032;BME280;3044;43.232;27.972;2023-02-03T03:39:10;45169.03;;;-143.84;81.10
6032;BME280;3044;43.232;27.972;2023-02-03T03:41:44;45207.13;;;-143.84;81.67
6032;BME280;3044;43.232;27.972;2023-02-03T03:44:15;45167.13;;;-143.84;81.64
6032;BME280;3044;43.232;27.972;2023-02-03T03:46:51;45184.25;;;-143.84;81.52
6032;BME280;3044;43.232;27.972;2023-02-03T03:49:24;45186.16;;;-143.84;82.13
6032;BME280;3044;43.232;27.972;2023-02-03T03:51:56;45142.38;;;-143.84;81.47
6032;BME280;3044;43.232;27.972;2023-02-03T03:54:25;45195.69;;;-143.84;81.99
6032;BME280;3044;43.232;27.972;2023-02-03T03:56:57;45193.78;;;-143.84;82.03
6032;BME280;3044;43.232;27.972;2023-02-03T03:59:29;45191.88;;;-143.84;81.36
6032;BME280;3044;43.232;27.972;2023-02-03T04:01:58;45189.97;;;-143.84;81.84
6032;BME280;3044;43.232;27.972;2023-02-03T04:04:33;45169.03;;;-143.84;81.45
6032;BME280;3044;43.232;27.972;2023-02-03T04:07:02;45172.84;;;-143.84;81.73
6032;BME280;3044;43.232;27.972;2023-02-03T04:09:29;45201.41;;;-143.84;82.18
6032;BME280;3044;43.232;27.972;2023-02-03T04:11:57;45153.81;;;-143.84;82.19
6032;BME280;3044;43.232;27.972;2023-02-03T04:14:27;45180.47;;;-143.84;82.55
6032;BME280;3044;43.232;27.972;2023-02-03T04:16:54;45170.94;;;-143.84;82.84
6032;BME280;3044;43.232;27.972;2023-02-03T04:19:22;45155.69;;;-143.84;82.78
6032;BME280;3044;43.232;27.972;2023-02-03T04:21:51;45150.00;;;-143.84;82.72
6032;BME280;3044;43.232;27.972;2023-02-03T04:24:18;45151.91;;;-143.84;82.97
6032;BME280;3044;43.232;27.972;2023-02-03T04:26:45;45138.56;;;-143.84;83.17
6032;BME280;3044;43.232;27.972;2023-02-03T04:29:12;45155.69;;;-143.84;83.12
6032;BME280;3044;43.232;27.972;2023-02-03T04:31:39;45132.84;;;-143.84;82.84
6032;BME280;3044;43.232;27.972;2023-02-03T04:34:06;45142.38;;;-143.84;83.21
6032;BME280;3044;43.232;27.972;2023-02-03T04:36:34;45140.47;;;-143.84;83.78
6032;BME280;3044;43.232;27.972;2023-02-03T04:39:02;45146.19;;;-143.84;83.55
6032;BME280;3044;43.232;27.972;2023-02-03T04:41:29;45115.72;;;-143.84;84.17
6032;BME280;3044;43.232;27.972;2023-02-03T04:43:57;45110.00;;;-143.84;83.83
6032;BME280;3044;43.232;27.972;2023-02-03T04:46:24;45094.78;;;-143.84;83.61
6032;BME280;3044;43.232;27.972;2023-02-03T04:48:51;45108.09;;;-143.84;83.50
6032;BME280;3044;43.232;27.972;2023-02-03T04:51:18;45111.91;;;-143.84;83.75
6032;BME280;3044;43.232;27.972;2023-02-03T04:53:45;45102.38;;;-143.84;83.92
6032;BME280;3044;43.232;27.972;2023-02-03T04:56:14;45111.91;;;-143.84;83.49
6032;BME280;3044;43.232;27.972;2023-02-03T04:58:41;45130.94;;;-143.84;83.78
6032;BME280;3044;43.232;27.972;2023-02-03T05:01:08;45123.34;;;-143.84;83.49
6032;BME280;3044;43.232;27.972;2023-02-03T05:03:36;45127.13;;;-143.84;83.33
6032;BME280;3044;43.232;27.972;2023-02-03T05:06:03;45127.13;;;-143.84;83.78
6032;BME280;3044;43.232;27.972;2023-02-03T05:08:31;45125.22;;;-143.84;83.92
6032;BME280;3044;43.232;27.972;2023-02-03T05:10:58;45138.56;;;-143.84;83.49
6032;BME280;3044;43.232;27.972;2023-02-03T05:13:26;45138.56;;;-143.84;83.09
6032;BME280;3044;43.232;27.972;2023-02-03T05:15:54;45153.81;;;-143.84;83.26
6032;BME280;3044;43.232;27.972;2023-02-03T05:18:21;45161.41;;;-143.84;82.39
6032;BME280;3044;43.232;27.972;2023-02-03T05:20:48;45184.25;;;-143.84;82.06
6032;BME280;3044;43.232;27.972;2023-02-03T05:23:15;45172.84;;;-143.84;82.15
6032;BME280;3044;43.232;27.972;2023-02-03T05:25:43;45182.38;;;-143.84;82.07
6032;BME280;3044;43.232;27.972;2023-02-03T05:28:10;45207.13;;;-143.84;81.99
6032;BME280;3044;43.232;27.972;2023-02-03T05:30:39;45201.41;;;-143.84;81.30
6032;BME280;3044;43.232;27.972;2023-02-03T05:33:06;45157.59;;;-143.84;81.57
6032;BME280;3044;43.232;27.972;2023-02-03T05:35:33;45189.97;;;-143.84;80.85
6032;BME280;3044;43.232;27.972;2023-02-03T05:38:00;45193.78;;;-143.84;80.78
6032;BME280;3044;43.232;27.972;2023-02-03T05:40:27;45199.50;;;-143.84;80.51
6032;BME280;3044;43.232;27.972;2023-02-03T05:43:12;45195.69;;;-143.84;80.31
6032;BME280;3044;43.232;27.972;2023-02-03T05:45:40;45191.88;;;-143.84;79.80
6032;BME280;3044;43.232;27.972;2023-02-03T05:48:08;45216.63;;;-143.84;80.18
6032;BME280;3044;43.232;27.972;2023-02-03T05:50:35;45195.69;;;-143.84;80.16
6032;BME280;3044;43.232;27.972;2023-02-03T05:53:04;45201.41;;;-143.84;80.05
6032;BME280;3044;43.232;27.972;2023-02-03T05:55:33;45209.03;;;-143.84;80.25
6032;BME280;3044;43.232;27.972;2023-02-03T05:58:00;45209.03;;;-143.84;80.12
6032;BME280;3044;43.232;27.972;2023-02-03T06:00:27;45188.06;;;-143.84;79.61
6032;BME280;3044;43.232;27.972;2023-02-03T06:02:58;45197.59;;;-143.84;79.50
6032;BME280;3044;43.232;27.972;2023-02-03T06:05:27;45269.97;;;-143.84;79.45
6032;BME280;3044;43.232;27.972;2023-02-03T06:07:54;45222.34;;;-143.84;79.13
6032;BME280;3044;43.232;27.972;2023-02-03T06:10:22;45199.50;;;-143.84;79.53
6032;BME280;3044;43.232;27.972;2023-02-03T06:12:49;45205.22;;;-143.84;79.01
6032;BME280;3044;43.232;27.972;2023-02-03T06:15:16;45210.94;;;-143.84;79.49
6032;BME280;3044;43.232;27.972;2023-02-03T06:17:44;45199.50;;;-143.84;79.99
6032;BME280;3044;43.232;27.972;2023-02-03T06:20:15;45201.41;;;-143.84;79.10
6032;BME280;3044;43.232;27.972;2023-02-03T06:22:42;45182.38;;;-143.84;79.71
6032;BME280;3044;43.232;27.972;2023-02-03T06:25:10;45222.34;;;-143.84;79.23
6032;BME280;3044;43.232;27.972;2023-02-03T06:27:39;45180.47;;;-143.84;79.05
6032;BME280;3044;43.232;27.972;2023-02-03T06:30:07;45247.09;;;-143.84;78.74
6032;BME280;3044;43.232;27.972;2023-02-03T06:32:35;45237.59;;;-143.84;78.25
6032;BME280;3044;43.232;27.972;2023-02-03T06:35:03;45199.50;;;-143.84;77.36
6032;BME280;3044;43.232;27.972;2023-02-03T06:37:31;45231.88;;;-143.84;77.04
6032;BME280;3044;43.232;27.972;2023-02-03T06:40:00;45224.25;;;-143.84;76.75
6032;BME280;3044;43.232;27.972;2023-02-03T06:42:27;45218.53;;;-143.84;76.16
6032;BME280;3044;43.232;27.972;2023-02-03T06:44:54;45214.72;;;-143.84;74.92
6032;BME280;3044;43.232;27.972;2023-02-03T06:47:21;45245.19;;;-143.84;74.93
6032;BME280;3044;43.232;27.972;2023-02-03T06:49:48;45203.31;;;-143.84;74.88
6032;BME280;3044;43.232;27.972;2023-02-03T06:52:16;45243.31;;;-143.84;74.73
6032;BME280;3044;43.232;27.972;2023-02-03T06:54:45;45222.34;;;-143.84;74.16
6032;BME280;3044;43.232;27.972;2023-02-03T06:57:12;45222.34;;;-143.84;73.19
6032;BME280;3044;43.232;27.972;2023-02-03T06:59:40;45209.03;;;-143.84;72.78
6032;BME280;3044;43.232;27.972;2023-02-03T07:02:08;45199.50;;;-143.84;72.41
6032;BME280;3044;43.232;27.972;2023-02-03T07:04:36;45193.78;;;-143.84;71.99
6032;BME280;3044;43.232;27.972;2023-02-03T07:07:03;45193.78;;;-143.84;71.62
6032;BME280;3044;43.232;27.972;2023-02-03T07:09:31;45241.41;;;-143.84;71.27
6032;BME280;3044;43.232;27.972;2023-02-03T07:11:59;45210.94;;;-143.84;70.76
6032;BME280;3044;43.232;27.972;2023-02-03T07:14:26;45184.25;;;-143.84;70.19
6032;BME280;3044;43.232;27.972;2023-02-03T07:16:55;45235.69;;;-143.84;70.31
6032;BME280;3044;43.232;27.972;2023-02-03T07:19:22;45222.34;;;-143.84;69.52
6032;BME280;3044;43.232;27.972;2023-02-03T07:21:49;45233.78;;;-143.84;68.97
6032;BME280;3044;43.232;27.972;2023-02-03T07:24:16;45228.06;;;-143.84;68.79
6032;BME280;3044;43.232;27.972;2023-02-03T07:26:44;45207.13;;;-143.84;68.47
6032;BME280;3044;43.232;27.972;2023-02-03T07:29:12;45237.59;;;-143.84;68.49
6032;BME280;3044;43.232;27.972;2023-02-03T07:31:39;45212.84;;;-143.84;70.10
6032;BME280;3044;43.232;27.972;2023-02-03T07:34:06;45228.06;;;-143.84;68.16
6032;BME280;3044;43.232;27.972;2023-02-03T07:36:34;45239.50;;;-143.84;66.15
6032;BME280;3044;43.232;27.972;2023-02-03T07:39:01;45184.25;;;-143.84;65.96
6032;BME280;3044;43.232;27.972;2023-02-03T07:41:28;45201.41;;;-143.84;64.71
6032;BME280;3044;43.232;27.972;2023-02-03T07:43:55;45207.13;;;-143.84;63.24
6032;BME280;3044;43.232;27.972;2023-02-03T07:46:24;45262.34;;;-143.84;63.46
6032;BME280;3044;43.232;27.972;2023-02-03T07:48:51;45205.22;;;-143.84;63.23
6032;BME280;3044;43.232;27.972;2023-02-03T07:51:18;45231.88;;;-143.84;62.64
6032;BME280;3044;43.232;27.972;2023-02-03T07:53:45;45205.22;;;-143.84;61.49
6032;BME280;3044;43.232;27.972;2023-02-03T07:56:13;45220.44;;;-143.84;60.62
6032;BME280;3044;43.232;27.972;2023-02-03T07:58:40;45201.41;;;-143.84;59.90
6032;BME280;3044;43.232;27.972;2023-02-03T08:01:11;45205.22;;;-143.84;59.26
6032;BME280;3044;43.232;27.972;2023-02-03T08:03:40;45180.47;;;-143.84;57.32
6032;BME280;3044;43.232;27.972;2023-02-03T08:06:08;45176.66;;;-143.84;56.95
6032;BME280;3044;43.232;27.972;2023-02-03T08:08:35;45163.31;;;-143.84;57.08
6032;BME280;3044;43.232;27.972;2023-02-03T08:11:05;45214.72;;;-143.84;55.33
6032;BME280;3044;43.232;27.972;2023-02-03T08:13:32;45180.47;;;-143.84;54.94
6032;BME280;3044;43.232;27.972;2023-02-03T08:15:59;45172.84;;;-143.84;53.91
6032;BME280;3044;43.232;27.972;2023-02-03T08:18:27;45167.13;;;-143.84;54.15
6032;BME280;3044;43.232;27.972;2023-02-03T08:20:55;45191.88;;;-143.84;52.61
6032;BME280;3044;43.232;27.972;2023-02-03T08:23:24;45188.06;;;-143.84;52.22
6032;BME280;3044;43.232;27.972;2023-02-03T08:25:51;45189.97;;;-143.84;52.20
6032;BME280;3044;43.232;27.972;2023-02-03T08:28:19;45157.59;;;-143.84;52.45
6032;BME280;3044;43.232;27.972;2023-02-03T08:30:46;45167.13;;;-143.84;52.15
6032;BME280;3044;43.232;27.972;2023-02-03T08:33:13;45178.56;;;-143.84;51.84
6032;BME280;3044;43.232;27.972;2023-02-03T08:35:44;45235.69;;;-143.84;53.43
6032;BME280;3044;43.232;27.972;2023-02-03T08:38:13;45159.50;;;-143.84;52.97
6032;BME280;3044;43.232;27.972;2023-02-03T08:40:40;45189.97;;;-143.84;51.41
6032;BME280;3044;43.232;27.972;2023-02-03T08:43:08;45188.06;;;-143.84;50.92
6032;BME280;3044;43.232;27.972;2023-02-03T08:45:35;45169.03;;;-143.84;49.62
6032;BME280;3044;43.232;27.972;2023-02-03T08:48:03;45161.41;;;-143.84;50.34
6032;BME280;3044;43.232;27.972;2023-02-03T08:50:30;45170.94;;;-143.84;49.07
6032;BME280;3044;43.232;27.972;2023-02-03T08:52:57;45186.16;;;-143.84;49.99
6032;BME280;3044;43.232;27.972;2023-02-03T08:55:26;45199.50;;;-143.84;48.51
6032;BME280;3044;43.232;27.972;2023-02-03T08:57:53;45165.22;;;-143.84;48.45
6032;BME280;3044;43.232;27.972;2023-02-03T09:00:21;45180.47;;;-143.84;48.48
6032;BME280;3044;43.232;27.972;2023-02-03T09:02:48;45167.13;;;-143.84;47.60
6032;BME280;3044;43.232;27.972;2023-02-03T09:05:16;45193.78;;;-143.84;47.11
6032;BME280;3044;43.232;27.972;2023-02-03T09:07:43;45184.25;;;-143.84;47.34
6032;BME280;3044;43.232;27.972;2023-02-03T09:10:10;45188.06;;;-143.84;47.03
6032;BME280;3044;43.232;27.972;2023-02-03T09:12:39;45163.31;;;-143.84;46.40
6032;BME280;3044;43.232;27.972;2023-02-03T09:15:07;45186.16;;;-143.84;46.66
6032;BME280;3044;43.232;27.972;2023-02-03T09:17:34;45165.22;;;-143.84;46.52
6032;BME280;3044;43.232;27.972;2023-02-03T09:20:01;45184.25;;;-143.84;46.87
6032;BME280;3044;43.232;27.972;2023-02-03T09:22:29;45155.69;;;-143.84;46.34
6032;BME280;3044;43.232;27.972;2023-02-03T09:24:56;45207.13;;;-143.84;46.15
6032;BME280;3044;43.232;27.972;2023-02-03T09:27:23;45146.19;;;-143.84;45.27
6032;BME280;3044;43.232;27.972;2023-02-03T09:29:52;45155.69;;;-143.84;45.17
6032;BME280;3044;43.232;27.972;2023-02-03T09:32:19;45148.09;;;-143.84;45.61
6032;BME280;3044;43.232;27.972;2023-02-03T09:34:46;45144.28;;;-143.84;45.96
6032;BME280;3044;43.232;27.972;2023-02-03T09:37:13;45140.47;;;-143.84;45.72
6032;BME280;3044;43.232;27.972;2023-02-03T09:39:40;45138.56;;;-143.84;45.73
6032;BME280;3044;43.232;27.972;2023-02-03T09:42:33;45153.81;;;-143.84;44.47
6032;BME280;3044;43.232;27.972;2023-02-03T09:45:15;45146.19;;;-143.84;44.76
6032;BME280;3044;43.232;27.972;2023-02-03T09:47:44;45163.31;;;-143.84;44.15
6032;BME280;3044;43.232;27.972;2023-02-03T09:50:20;45184.25;;;-143.84;44.13
6032;BME280;3044;43.232;27.972;2023-02-03T09:52:49;45163.31;;;-143.84;41.51
6032;BME280;3044;43.232;27.972;2023-02-03T09:55:25;45148.09;;;-143.84;42.11
6032;BME280;3044;43.232;27.972;2023-02-03T09:57:57;45155.69;;;-143.84;42.78
6032;BME280;3044;43.232;27.972;2023-02-03T10:00:31;45144.28;;;-143.84;42.04
6032;BME280;3044;43.232;27.972;2023-02-03T10:03:06;45144.28;;;-143.84;41.59
6032;BME280;3044;43.232;27.972;2023-02-03T10:05:48;45159.50;;;-143.84;42.06
6032;BME280;3044;43.232;27.972;2023-02-03T10:08:27;45178.56;;;-143.84;42.74
6032;BME280;3044;43.232;27.972;2023-02-03T10:11:06;45132.84;;;-143.84;41.79
6032;BME280;3044;43.232;27.972;2023-02-03T10:13:49;45129.03;;;-143.84;40.86
6032;BME280;3044;43.232;27.972;2023-02-03T10:16:45;45136.66;;;-143.84;40.76
6032;BME280;3044;43.232;27.972;2023-02-03T10:19:21;45159.50;;;-143.84;41.28
6032;BME280;3044;43.232;27.972;2023-02-03T10:21:54;45144.28;;;-143.84;40.30
6032;BME280;3044;43.232;27.972;2023-02-03T10:24:26;45144.28;;;-143.84;40.23
6032;BME280;3044;43.232;27.972;2023-02-03T10:26:56;45169.03;;;-143.84;39.54
6032;BME280;3044;43.232;27.972;2023-02-03T10:29:30;45161.41;;;-143.84;40.13
6032;BME280;3044;43.232;27.972;2023-02-03T10:32:01;45155.69;;;-143.84;40.35
6032;BME280;3044;43.232;27.972;2023-02-03T10:34:31;45132.84;;;-143.84;41.02
6032;BME280;3044;43.232;27.972;2023-02-03T10:37:02;45123.34;;;-143.84;40.91
6032;BME280;3044;43.232;27.972;2023-02-03T10:39:43;45140.47;;;-143.84;41.63
6032;BME280;3044;43.232;27.972;2023-02-03T10:42:11;45130.94;;;-143.84;41.59
6032;BME280;3044;43.232;27.972;2023-02-03T10:44:41;45146.19;;;-143.84;40.09
6032;BME280;3044;43.232;27.972;2023-02-03T10:47:24;45102.38;;;-143.84;40.80
6032;BME280;3044;43.232;27.972;2023-02-03T10:49:54;45130.94;;;-143.84;41.58
6032;BME280;3044;43.232;27.972;2023-02-03T10:52:25;45159.50;;;-143.84;41.19
6032;BME280;3044;43.232;27.972;2023-02-03T10:54:53;45140.47;;;-143.84;41.45
6032;BME280;3044;43.232;27.972;2023-02-03T10:57:21;45142.38;;;-143.84;41.34
6032;BME280;3044;43.232;27.972;2023-02-03T10:59:48;45155.69;;;-143.84;41.20
6032;BME280;3044;43.232;27.972;2023-02-03T11:02:27;45121.44;;;-143.84;41.74
6032;BME280;3044;43.232;27.972;2023-02-03T11:05:09;45134.75;;;-143.84;40.70
6032;BME280;3044;43.232;27.972;2023-02-03T11:07:37;45144.28;;;-143.84;41.54
6032;BME280;3044;43.232;27.972;2023-02-03T11:10:25;45155.69;;;-143.84;41.82
6032;BME280;3044;43.232;27.972;2023-02-03T11:13:10;45161.41;;;-143.84;41.35
6032;BME280;3044;43.232;27.972;2023-02-03T11:15:42;45159.50;;;-143.84;40.82
6032;BME280;3044;43.232;27.972;2023-02-03T11:21:12;45150.00;;;-143.84;41.12
6032;BME280;3044;43.232;27.972;2023-02-03T11:23:52;45148.09;;;-143.84;40.88
6032;BME280;3044;43.232;27.972;2023-02-03T11:26:23;45148.09;;;-143.84;41.31
6032;BME280;3044;43.232;27.972;2023-02-03T11:28:55;45148.09;;;-143.84;41.15
6032;BME280;3044;43.232;27.972;2023-02-03T11:31:24;45138.56;;;-143.84;40.24
6032;BME280;3044;43.232;27.972;2023-02-03T11:34:01;45148.09;;;-143.84;40.45
6032;BME280;3044;43.232;27.972;2023-02-03T11:36:33;45136.66;;;-143.84;42.00
6032;BME280;3044;43.232;27.972;2023-02-03T11:39:19;45176.66;;;-143.84;41.20
6032;BME280;3044;43.232;27.972;2023-02-03T11:41:47;45136.66;;;-143.84;41.50
6032;BME280;3044;43.232;27.972;2023-02-03T11:44:17;45150.00;;;-143.84;41.46
6032;BME280;3044;43.232;27.972;2023-02-03T11:46:47;45159.50;;;-143.84;40.78
6032;BME280;3044;43.232;27.972;2023-02-03T11:52:40;45144.28;;;-143.84;40.78
6032;BME280;3044;43.232;27.972;2023-02-03T11:55:26;45144.28;;;-143.84;40.51
6032;BME280;3044;43.232;27.972;2023-02-03T11:58:12;45150.00;;;-143.84;41.03
6032;BME280;3044;43.232;27.972;2023-02-03T12:00:53;45119.53;;;-143.84;40.66
6032;BME280;3044;43.232;27.972;2023-02-03T12:03:53;45148.09;;;-143.84;41.34
6032;BME280;3044;43.232;27.972;2023-02-03T12:06:40;45136.66;;;-143.84;40.04
6032;BME280;3044;43.232;27.972;2023-02-03T12:09:22;45163.31;;;-143.84;39.42
6032;BME280;3044;43.232;27.972;2023-02-03T12:14:56;45169.03;;;-143.84;40.34
6032;BME280;3044;43.232;27.972;2023-02-03T12:17:44;45174.75;;;-143.84;40.79
6032;BME280;3044;43.232;27.972;2023-02-03T12:20:34;45178.56;;;-143.84;40.86
6032;BME280;3044;43.232;27.972;2023-02-03T12:23:13;45172.84;;;-143.84;41.39
6032;BME280;3044;43.232;27.972;2023-02-03T12:25:56;45148.09;;;-143.84;41.36
6032;BME280;3044;43.232;27.972;2023-02-03T12:28:39;45159.50;;;-143.84;40.93
6032;BME280;3044;43.232;27.972;2023-02-03T12:31:11;45150.00;;;-143.84;41.31
6032;BME280;3044;43.232;27.972;2023-02-03T12:33:42;45161.41;;;-143.84;41.05
6032;BME280;3044;43.232;27.972;2023-02-03T12:36:13;45148.09;;;-143.84;40.88
6032;BME280;3044;43.232;27.972;2023-02-03T12:38:44;45153.81;;;-143.84;42.73
6032;BME280;3044;43.232;27.972;2023-02-03T12:41:21;45172.84;;;-143.84;41.84
6032;BME280;3044;43.232;27.972;2023-02-03T12:43:52;45169.03;;;-143.84;42.39
6032;BME280;3044;43.232;27.972;2023-02-03T12:46:27;45157.59;;;-143.84;42.54
6032;BME280;3044;43.232;27.972;2023-02-03T12:48:59;45161.41;;;-143.84;42.80
6032;BME280;3044;43.232;27.972;2023-02-03T12:51:33;45146.19;;;-143.84;42.91
6032;BME280;3044;43.232;27.972;2023-02-03T12:56:54;45176.66;;;-143.84;43.68
6032;BME280;3044;43.232;27.972;2023-02-03T12:59:28;45132.84;;;-143.84;43.58
6032;BME280;3044;43.232;27.972;2023-02-03T13:01:59;45153.81;;;-143.84;43.64
6032;BME280;3044;43.232;27.972;2023-02-03T13:04:32;45144.28;;;-143.84;43.73
6032;BME280;3044;43.232;27.972;2023-02-03T13:07:07;45153.81;;;-143.84;43.17
6032;BME280;3044;43.232;27.972;2023-02-03T13:09:40;45161.41;;;-143.84;42.54
6032;BME280;3044;43.232;27.972;2023-02-03T13:12:22;45153.81;;;-143.84;42.54
6032;BME280;3044;43.232;27.972;2023-02-03T13:14:54;45146.19;;;-143.84;42.49
6032;BME280;3044;43.232;27.972;2023-02-03T13:17:27;45140.47;;;-143.84;42.79
6032;BME280;3044;43.232;27.972;2023-02-03T13:19:58;45144.28;;;-143.84;42.99
6032;BME280;3044;43.232;27.972;2023-02-03T13:22:26;45153.81;;;-143.84;43.23